createdAt,value
2018-04-19T00:02:08.916Z,6.90
2018-04-19T00:04:35.262Z,6.90
2018-04-19T00:07:01.574Z,9.77
2018-04-19T00:09:27.924Z,6.97
2018-04-19T00:11:54.342Z,10.13
2018-04-19T00:14:20.646Z,9.97
2018-04-19T00:16:51.674Z,6.13
2018-04-19T00:19:18.015Z,5.70
2018-04-19T00:21:44.386Z,6.97
2018-04-19T00:24:10.705Z,5.73
2018-04-19T00:26:45.291Z,4.83
2018-04-19T00:29:11.678Z,8.80
2018-04-19T00:31:38.072Z,5.67
2018-04-19T00:34:05.202Z,5.73
2018-04-19T00:36:36.228Z,6.90
2018-04-19T00:39:03.436Z,7.77
2018-04-19T00:41:29.847Z,10.30
2018-04-19T00:44:07.224Z,12.00
2018-04-19T00:46:33.660Z,10.63
2018-04-19T00:49:00.008Z,11.17
2018-04-19T00:51:29.245Z,7.33
2018-04-19T00:53:55.636Z,7.73
2018-04-19T00:56:22.045Z,7.17
2018-04-19T00:59:02.356Z,7.40
2018-04-19T01:01:28.759Z,7.70
2018-04-19T01:04:07.093Z,8.13
2018-04-19T01:06:33.472Z,9.00
2018-04-19T01:09:01.919Z,7.67
2018-04-19T01:11:28.316Z,7.30
2018-04-19T01:13:54.674Z,7.93
2018-04-19T01:16:21.779Z,10.93
2018-04-19T01:18:59.359Z,9.67
2018-04-19T01:21:25.763Z,7.73
2018-04-19T01:23:52.144Z,8.33
2018-04-19T01:26:18.601Z,9.77
2018-04-19T01:28:45.737Z,8.63
2018-04-19T01:31:12.171Z,11.27
2018-04-19T01:33:39.284Z,9.50
2018-04-19T01:36:17.879Z,9.13
2018-04-19T01:39:05.644Z,10.73
2018-04-19T01:41:32.033Z,6.80
2018-04-19T01:44:20.937Z,10.73
2018-04-19T01:46:47.345Z,10.97
2018-04-19T01:49:24.974Z,12.60
2018-04-19T01:51:52.171Z,10.00
2018-04-19T01:54:19.328Z,10.37
2018-04-19T01:56:46.449Z,10.27
2018-04-19T01:59:37.595Z,8.33
2018-04-19T02:02:04.833Z,10.40
2018-04-19T02:04:31.295Z,12.97
2018-04-19T02:06:57.737Z,10.53
2018-04-19T02:09:26.196Z,10.03
2018-04-19T02:11:53.362Z,11.30
2018-04-19T02:14:19.746Z,11.67
2018-04-19T02:16:46.952Z,11.13
2018-04-19T02:19:13.405Z,12.93
2018-04-19T02:21:39.839Z,11.43
2018-04-19T02:24:06.250Z,9.87
2018-04-19T02:26:32.701Z,10.03
2018-04-19T02:28:59.107Z,8.93
2018-04-19T02:31:25.554Z,8.60
2018-04-19T02:33:51.959Z,11.00
2018-04-19T02:36:19.268Z,14.97
2018-04-19T02:38:45.657Z,13.10
2018-04-19T02:41:13.811Z,13.70
2018-04-19T02:43:40.182Z,11.30
2018-04-19T02:46:07.643Z,9.80
2018-04-19T02:48:34.042Z,13.67
2018-04-19T02:51:01.210Z,11.40
2018-04-19T02:53:28.338Z,9.57
2018-04-19T02:55:54.754Z,10.20
2018-04-19T02:58:34.377Z,11.63
2018-04-19T03:01:00.762Z,10.40
2018-04-19T03:03:27.933Z,10.57
2018-04-19T03:06:09.574Z,12.10
2018-04-19T03:08:35.948Z,11.10
2018-04-19T03:11:02.382Z,11.90
2018-04-19T03:13:28.773Z,12.73
2018-04-19T03:15:55.945Z,12.53
2018-04-19T03:18:28.230Z,13.20
2018-04-19T03:20:55.728Z,10.20
2018-04-19T03:23:22.245Z,12.90
2018-04-19T03:25:48.633Z,12.53
2018-04-19T03:28:15.787Z,12.93
2018-04-19T03:31:07.087Z,12.20
2018-04-19T03:33:33.490Z,10.37
2018-04-19T03:36:00.947Z,10.80
2018-04-19T03:38:27.369Z,10.80
2018-04-19T03:40:53.770Z,10.90
2018-04-19T03:43:21.030Z,12.57
2018-04-19T03:45:48.169Z,11.47
2018-04-19T03:48:15.351Z,11.73
2018-04-19T03:50:41.758Z,11.47
2018-04-19T03:53:08.986Z,12.80
2018-04-19T03:55:35.403Z,12.17
2018-04-19T03:58:01.823Z,12.30
2018-04-19T04:00:28.240Z,11.93
2018-04-19T04:02:54.682Z,12.30
2018-04-19T04:05:21.094Z,12.20
2018-04-19T04:07:48.257Z,11.80
2018-04-19T04:10:14.669Z,12.90
2018-04-19T04:12:41.830Z,13.70
2018-04-19T04:15:09.015Z,12.73
2018-04-19T04:17:47.734Z,13.37
2018-04-19T04:20:26.342Z,13.17
2018-04-19T04:23:05.039Z,12.47
2018-04-19T04:25:32.194Z,12.27
2018-04-19T04:27:58.657Z,12.63
2018-04-19T04:30:25.038Z,13.63
2018-04-19T04:32:51.967Z,13.10
2018-04-19T04:35:18.539Z,12.43
2018-04-19T04:37:44.951Z,14.17
2018-04-19T04:40:11.348Z,13.03
2018-04-19T04:42:37.761Z,13.03
2018-04-19T04:45:04.198Z,12.40
2018-04-19T04:47:30.654Z,12.37
2018-04-19T04:49:57.066Z,12.73
2018-04-19T04:52:23.537Z,12.47
2018-04-19T04:54:49.933Z,13.53
2018-04-19T04:57:16.353Z,11.97
2018-04-19T04:59:43.543Z,13.27
2018-04-19T05:02:09.986Z,13.00
2018-04-19T05:04:36.409Z,11.90
2018-04-19T05:07:02.983Z,13.63
2018-04-19T05:09:29.381Z,11.73
2018-04-19T05:11:56.035Z,13.00
2018-04-19T05:14:23.207Z,13.73
2018-04-19T05:16:49.613Z,13.37
2018-04-19T05:19:16.009Z,12.37
2018-04-19T05:21:42.437Z,13.13
2018-04-19T05:24:09.844Z,13.63
2018-04-19T05:26:36.284Z,13.50
2018-04-19T05:29:02.701Z,12.83
2018-04-19T05:31:29.133Z,11.60
2018-04-19T05:33:57.023Z,12.40
2018-04-19T05:36:24.064Z,12.07
2018-04-19T05:38:50.469Z,12.23
2018-04-19T05:41:16.877Z,12.43
2018-04-19T05:43:43.285Z,12.40
2018-04-19T05:46:10.211Z,12.57
2018-04-19T05:48:36.743Z,13.57
2018-04-19T05:51:07.027Z,12.67
2018-04-19T05:53:34.191Z,12.07
2018-04-19T05:56:00.593Z,11.77
2018-04-19T05:58:27.500Z,12.47
2018-04-19T06:00:54.007Z,13.10
2018-04-19T06:03:20.431Z,12.60
2018-04-19T06:05:47.574Z,11.73
2018-04-19T06:08:13.991Z,12.33
2018-04-19T06:10:41.146Z,11.50
2018-04-19T06:13:08.329Z,12.00
2018-04-19T06:15:34.730Z,10.70
2018-04-19T06:18:01.887Z,11.13
2018-04-19T06:20:29.068Z,11.93
2018-04-19T06:22:55.638Z,11.03
2018-04-19T06:25:22.050Z,11.60
2018-04-19T06:27:48.465Z,11.67
2018-04-19T06:30:14.911Z,13.60
2018-04-19T06:32:41.424Z,13.07
2018-04-19T06:35:07.838Z,10.57
2018-04-19T06:37:34.275Z,9.97
2018-04-19T06:40:00.690Z,10.43
2018-04-19T06:42:27.176Z,10.97
2018-04-19T06:44:53.713Z,9.17
2018-04-19T06:47:20.199Z,10.13
2018-04-19T06:49:47.369Z,11.07
2018-04-19T06:52:14.518Z,9.10
2018-04-19T06:54:40.965Z,10.73
2018-04-19T06:57:07.477Z,10.00
2018-04-19T06:59:34.647Z,10.33
2018-04-19T07:02:01.838Z,9.60
2018-04-19T07:04:28.540Z,10.10
2018-04-19T07:06:55.054Z,9.87
2018-04-19T07:09:21.545Z,8.97
2018-04-19T07:11:47.982Z,11.20
2018-04-19T07:14:14.432Z,10.27
2018-04-19T07:16:40.881Z,9.80
2018-04-19T07:19:08.762Z,8.73
2018-04-19T07:21:35.265Z,10.20
2018-04-19T07:24:01.638Z,11.10
2018-04-19T07:26:28.244Z,10.00
2018-04-19T07:28:54.656Z,9.80
2018-04-19T07:31:21.129Z,10.40
2018-04-19T07:33:47.559Z,9.83
2018-04-19T07:36:14.021Z,9.93
2018-04-19T07:38:40.437Z,10.37
2018-04-19T07:41:07.000Z,9.80
2018-04-19T07:43:34.354Z,9.80
2018-04-19T07:46:01.630Z,9.47
2018-04-19T07:48:28.085Z,11.00
2018-04-19T07:50:54.566Z,9.93
2018-04-19T07:53:21.762Z,9.63
2018-04-19T07:55:48.219Z,10.50
2018-04-19T07:58:14.733Z,9.73
2018-04-19T08:00:41.159Z,9.17
2018-04-19T08:03:07.567Z,9.17
2018-04-19T08:05:34.737Z,9.73
2018-04-19T08:08:01.199Z,10.97
2018-04-19T08:10:27.670Z,9.97
2018-04-19T08:12:55.034Z,11.07
2018-04-19T08:15:22.190Z,9.80
2018-04-19T08:17:49.331Z,9.60
2018-04-19T08:20:16.597Z,8.77
2018-04-19T08:22:43.018Z,8.40
2018-04-19T08:25:09.474Z,8.10
2018-04-19T08:27:36.682Z,8.80
2018-04-19T08:30:03.147Z,9.10
2018-04-19T08:32:30.311Z,7.87
2018-04-19T08:34:56.771Z,8.67
2018-04-19T08:37:23.241Z,7.23
2018-04-19T08:39:49.707Z,8.10
2018-04-19T08:42:16.208Z,8.43
2018-04-19T08:44:42.655Z,8.43
2018-04-19T08:47:09.936Z,8.43
2018-04-19T08:49:37.124Z,8.63
2018-04-19T08:52:03.632Z,8.87
2018-04-19T08:54:30.109Z,8.97
2018-04-19T08:56:56.535Z,7.73
2018-04-19T08:59:23.530Z,7.57
2018-04-19T09:01:50.100Z,7.03
2018-04-19T09:04:16.763Z,6.83
2018-04-19T09:06:43.367Z,7.83
2018-04-19T09:09:09.879Z,5.33
2018-04-19T09:11:36.446Z,6.33
2018-04-19T09:14:03.167Z,5.77
2018-04-19T09:16:30.422Z,6.03
2018-04-19T09:18:57.618Z,6.53
2018-04-19T09:21:24.257Z,6.50
2018-04-19T09:23:50.773Z,6.17
2018-04-19T09:26:17.347Z,6.27
2018-04-19T09:28:43.849Z,5.70
2018-04-19T09:31:10.367Z,6.93
2018-04-19T09:33:36.814Z,6.57
2018-04-19T09:36:03.331Z,13.80
2018-04-19T09:38:30.575Z,11.03
2018-04-19T09:40:57.848Z,7.67
2018-04-19T09:43:24.288Z,7.90
2018-04-19T09:45:50.725Z,15.77
2018-04-19T09:48:17.126Z,9.60
2018-04-19T09:50:44.366Z,8.17
2018-04-19T09:53:10.800Z,6.90
2018-04-19T09:55:37.263Z,6.80
2018-04-19T09:58:07.476Z,8.13
2018-04-19T10:00:40.034Z,6.20
2018-04-19T10:03:06.503Z,8.00
2018-04-19T10:05:33.000Z,7.50
2018-04-19T10:07:59.477Z,7.33
2018-04-19T10:10:26.062Z,7.20
2018-04-19T10:12:52.474Z,8.00
2018-04-19T10:15:22.916Z,8.20
2018-04-19T10:17:49.342Z,8.07
2018-04-19T10:20:15.851Z,7.27
2018-04-19T10:22:42.315Z,6.80
2018-04-19T10:25:08.780Z,7.13
2018-04-19T10:27:36.002Z,8.10
2018-04-19T10:30:02.446Z,6.70
2018-04-19T10:32:28.878Z,6.20
2018-04-19T10:34:55.294Z,7.70
2018-04-19T10:37:21.734Z,7.57
2018-04-19T10:39:48.199Z,7.47
2018-04-19T10:42:14.675Z,8.63
2018-04-19T10:44:41.160Z,7.33
2018-04-19T10:47:11.529Z,7.13
2018-04-19T10:49:38.122Z,6.67
2018-04-19T10:52:04.546Z,6.87
2018-04-19T10:54:31.283Z,7.40
2018-04-19T10:56:57.768Z,6.33
2018-04-19T10:59:24.966Z,6.37
2018-04-19T11:01:51.389Z,5.33
2018-04-19T11:04:17.822Z,7.13
2018-04-19T11:06:44.255Z,5.50
2018-04-19T11:09:10.711Z,5.33
2018-04-19T11:11:37.191Z,4.43
2018-04-19T11:14:03.676Z,5.17
2018-04-19T11:16:30.119Z,5.10
2018-04-19T11:18:56.575Z,6.10
2018-04-19T11:21:23.026Z,5.80
2018-04-19T11:23:49.502Z,6.17
2018-04-19T11:26:15.978Z,5.80
2018-04-19T11:28:42.438Z,4.93
2018-04-19T11:31:09.649Z,4.90
2018-04-19T11:33:36.138Z,5.57
2018-04-19T11:36:02.640Z,5.60
2018-04-19T11:38:29.371Z,5.40
2018-04-19T11:40:55.786Z,5.33
2018-04-19T11:43:22.269Z,5.50
2018-04-19T11:45:49.476Z,4.70
2018-04-19T11:48:16.070Z,3.80
2018-04-19T11:50:42.487Z,4.07
2018-04-19T11:53:09.679Z,3.83
2018-04-19T11:55:36.125Z,4.83
2018-04-19T11:58:02.566Z,4.00
2018-04-19T12:00:29.007Z,4.00
2018-04-19T12:02:55.458Z,4.70
2018-04-19T12:05:22.658Z,4.30
2018-04-19T12:07:49.094Z,3.37
2018-04-19T12:10:15.566Z,2.90
2018-04-19T12:12:42.801Z,3.40
2018-04-19T12:15:09.242Z,4.27
2018-04-19T12:17:35.752Z,3.60
2018-04-19T12:20:02.282Z,4.30
2018-04-19T12:22:28.747Z,4.13
2018-04-19T12:24:55.245Z,4.00
2018-04-19T12:27:21.700Z,3.17
2018-04-19T12:29:48.117Z,3.57
2018-04-19T12:32:14.601Z,3.80
2018-04-19T12:34:41.022Z,3.70
2018-04-19T12:37:07.456Z,3.93
2018-04-19T12:39:33.854Z,4.20
2018-04-19T12:42:00.325Z,3.80
2018-04-19T12:44:26.767Z,3.37
2018-04-19T12:46:53.232Z,3.33
2018-04-19T12:49:20.351Z,3.47
2018-04-19T12:51:46.820Z,3.30
2018-04-19T12:54:13.270Z,3.30
2018-04-19T12:56:40.486Z,3.07
2018-04-19T12:59:07.730Z,3.00
2018-04-19T13:01:34.201Z,2.10
2018-04-19T13:04:01.367Z,2.63
2018-04-19T13:06:27.786Z,2.60
2018-04-19T13:08:54.974Z,2.20
2018-04-19T13:11:21.599Z,2.80
2018-04-19T13:13:48.042Z,2.20
2018-04-19T13:16:15.315Z,2.40
2018-04-19T13:18:41.829Z,2.97
2018-04-19T13:21:08.272Z,2.70
2018-04-19T13:23:34.741Z,2.53
2018-04-19T13:26:01.955Z,2.43
2018-04-19T13:28:28.373Z,2.43
2018-04-19T13:30:54.830Z,2.27
2018-04-19T13:33:22.250Z,2.20
2018-04-19T13:35:49.447Z,1.83
2018-04-19T13:38:15.886Z,2.13
2018-04-19T13:40:42.371Z,2.10
2018-04-19T13:43:09.521Z,2.30
2018-04-19T13:45:36.686Z,2.03
2018-04-19T13:48:03.891Z,2.10
2018-04-19T13:50:30.311Z,1.87
2018-04-19T13:52:56.993Z,2.60
2018-04-19T13:55:24.144Z,2.17
2018-04-19T13:57:52.071Z,2.60
2018-04-19T14:00:18.473Z,1.90
2018-04-19T14:02:44.890Z,2.10
2018-04-19T14:05:15.963Z,2.20
2018-04-19T14:07:42.415Z,2.00
2018-04-19T14:10:08.850Z,2.07
2018-04-19T14:12:35.339Z,2.07
2018-04-19T14:15:01.812Z,2.03
2018-04-19T14:17:28.349Z,1.90
2018-04-19T14:19:56.874Z,2.17
2018-04-19T14:22:24.069Z,2.13
2018-04-19T14:24:50.511Z,1.93
2018-04-19T14:27:16.995Z,1.63
2018-04-19T14:29:46.522Z,1.70
2018-04-19T14:32:13.763Z,2.03
2018-04-19T14:34:40.930Z,2.07
2018-04-19T14:37:19.473Z,1.77
2018-04-19T14:39:57.066Z,1.90
2018-04-19T14:42:23.688Z,2.00
2018-04-19T14:44:55.971Z,2.47
2018-04-19T14:47:31.697Z,1.53
2018-04-19T14:49:58.186Z,2.03
2018-04-19T14:52:31.732Z,2.00
2018-04-19T14:54:58.221Z,1.97
2018-04-19T14:57:24.704Z,1.87
2018-04-19T14:59:51.149Z,1.83
2018-04-19T15:02:27.122Z,2.10
2018-04-19T15:04:55.418Z,2.30
2018-04-19T15:07:27.815Z,2.20
2018-04-19T15:09:55.112Z,1.60
2018-04-19T15:12:28.862Z,1.90
2018-04-19T15:14:56.087Z,2.23
2018-04-19T15:17:32.611Z,2.27
2018-04-19T15:20:01.939Z,2.73
2018-04-19T15:22:41.390Z,2.80
2018-04-19T15:25:07.849Z,2.00
2018-04-19T15:27:34.314Z,2.90
2018-04-19T15:30:00.766Z,2.10
2018-04-19T15:32:27.166Z,1.53
2018-04-19T15:34:53.621Z,2.00
2018-04-19T15:37:20.098Z,2.87
2018-04-19T15:39:46.540Z,2.00
2018-04-19T15:42:13.798Z,1.67
2018-04-19T15:44:40.243Z,2.30
2018-04-19T15:47:06.672Z,1.70
2018-04-19T15:49:33.120Z,2.17
2018-04-19T15:51:59.547Z,3.00
2018-04-19T15:54:26.014Z,1.70
2018-04-19T15:56:52.479Z,2.10
2018-04-19T15:59:18.957Z,5.53
2018-04-19T16:01:45.454Z,2.23
2018-04-19T16:04:11.958Z,1.70
2018-04-19T16:06:39.113Z,1.73
2018-04-19T16:09:06.342Z,1.60
2018-04-19T16:11:32.854Z,1.83
2018-04-19T16:13:59.346Z,1.90
2018-04-19T16:16:25.839Z,3.20
2018-04-19T16:18:52.310Z,2.37
2018-04-19T16:21:18.774Z,1.73
2018-04-19T16:23:45.357Z,1.63
2018-04-19T16:26:11.832Z,1.50
2018-04-19T16:28:38.321Z,1.60
2018-04-19T16:31:04.769Z,1.63
2018-04-19T16:33:31.251Z,1.70
2018-04-19T16:35:57.823Z,1.53
2018-04-19T16:38:24.289Z,1.50
2018-04-19T16:40:50.719Z,1.47
2018-04-19T16:43:17.192Z,1.57
2018-04-19T16:45:43.607Z,1.70
2018-04-19T16:48:10.124Z,1.70
2018-04-19T16:50:36.965Z,1.60
2018-04-19T16:53:10.208Z,1.60
2018-04-19T16:55:40.857Z,1.70
2018-04-19T16:58:07.365Z,1.77
2018-04-19T17:00:34.623Z,1.20
2018-04-19T17:03:01.178Z,2.20
2018-04-19T17:05:27.603Z,1.40
2018-04-19T17:07:54.045Z,1.50
2018-04-19T17:10:20.481Z,1.60
2018-04-19T17:12:47.026Z,1.83
2018-04-19T17:15:13.486Z,1.53
2018-04-19T17:17:39.986Z,1.30
2018-04-19T17:20:10.392Z,1.10
2018-04-19T17:22:37.576Z,1.70
2018-04-19T17:25:04.091Z,1.80
2018-04-19T17:27:30.970Z,1.77
2018-04-19T17:30:00.528Z,1.50
2018-04-19T17:32:27.120Z,1.37
2018-04-19T17:34:59.584Z,1.97
2018-04-19T17:37:31.939Z,1.65
2018-04-19T17:39:58.366Z,1.90
2018-04-19T17:42:25.881Z,1.70
2018-04-19T17:44:52.309Z,1.60
2018-04-19T17:47:18.754Z,1.50
2018-04-19T17:49:45.982Z,1.50
2018-04-19T17:52:12.542Z,1.20
2018-04-19T17:54:39.024Z,1.30
2018-04-19T17:57:05.608Z,3.87
2018-04-19T17:59:32.016Z,15.07
2018-04-19T18:01:58.494Z,10.93
2018-04-19T18:04:24.996Z,6.17
2018-04-19T18:06:52.205Z,2.70
2018-04-19T18:09:18.653Z,2.53
2018-04-19T18:11:45.129Z,2.17
2018-04-19T18:14:11.603Z,1.67
2018-04-19T18:16:39.118Z,1.60
2018-04-19T18:19:05.875Z,1.80
2018-04-19T18:21:32.395Z,1.90
2018-04-19T18:23:58.903Z,2.50
2018-04-19T18:26:25.410Z,2.27
2018-04-19T18:28:51.952Z,1.57
2018-04-19T18:31:22.259Z,2.10
2018-04-19T18:33:49.482Z,1.97
2018-04-19T18:36:15.907Z,1.90
2018-04-19T18:38:42.853Z,1.67
2018-04-19T18:41:10.387Z,1.60
2018-04-19T18:43:37.122Z,1.93
2018-04-19T18:46:03.993Z,1.67
2018-04-19T18:48:32.633Z,1.20
2018-04-19T18:50:59.270Z,1.20
2018-04-19T18:53:26.059Z,2.00
2018-04-19T18:55:52.663Z,1.30
2018-04-19T18:58:19.254Z,1.30
2018-04-19T19:00:46.520Z,1.50
2018-04-19T19:03:13.652Z,1.90
2018-04-19T19:05:41.007Z,2.00
2018-04-19T19:08:07.603Z,1.60
2018-04-19T19:10:34.127Z,1.90
2018-04-19T19:13:00.719Z,1.30
2018-04-19T19:18:58.325Z,1.60
2018-04-19T19:21:24.853Z,1.63
2018-04-19T19:23:51.295Z,1.67
2018-04-19T19:26:17.872Z,1.20
2018-04-19T19:28:44.333Z,1.73
2018-04-19T19:31:10.805Z,1.20
2018-04-19T19:33:37.299Z,1.30
2018-04-19T19:36:03.717Z,1.43
2018-04-19T19:38:30.446Z,1.37
2018-04-19T19:40:56.906Z,1.57
2018-04-19T19:43:24.276Z,1.10
2018-04-19T19:45:50.970Z,1.40
2018-04-19T19:48:17.519Z,1.60
2018-04-19T19:50:44.039Z,1.50
2018-04-19T19:53:10.621Z,1.60
2018-04-19T19:55:37.103Z,1.23
2018-04-19T19:58:03.768Z,1.50
2018-04-19T20:00:30.350Z,1.70
2018-04-19T20:02:56.931Z,1.53
2018-04-19T20:05:23.710Z,2.20
2018-04-19T20:07:50.303Z,2.37
2018-04-19T20:10:16.882Z,1.73
2018-04-19T20:12:43.482Z,2.80
2018-04-19T20:15:10.015Z,1.90
2018-04-19T20:17:36.979Z,2.13
2018-04-19T20:20:04.374Z,2.03
2018-04-19T20:22:31.751Z,1.90
2018-04-19T20:24:58.643Z,1.90
2018-04-19T20:27:25.219Z,2.80
2018-04-19T20:29:54.315Z,2.33
2018-04-19T20:32:20.890Z,3.27
2018-04-19T20:34:48.178Z,2.27
2018-04-19T20:37:14.670Z,2.90
2018-04-19T20:39:41.298Z,2.97
2018-04-19T20:42:08.734Z,2.93
2018-04-19T20:44:35.236Z,3.03
2018-04-19T20:47:01.885Z,3.30
2018-04-19T20:49:28.399Z,2.70
2018-04-19T20:51:54.957Z,2.50
2018-04-19T20:54:21.575Z,3.07
2018-04-19T20:56:48.079Z,2.13
2018-04-19T20:59:15.346Z,3.17
2018-04-19T21:01:41.857Z,3.10
2018-04-19T21:04:08.387Z,3.57
2018-04-19T21:06:36.695Z,3.53
2018-04-19T21:09:03.651Z,3.63
2018-04-19T21:11:30.360Z,2.50
2018-04-19T21:13:56.957Z,3.60
2018-04-19T21:16:23.540Z,2.60
2018-04-19T21:18:50.098Z,3.30
2018-04-19T21:21:16.677Z,2.67
2018-04-19T21:23:43.247Z,2.60
2018-04-19T21:26:09.856Z,3.27
2018-04-19T21:28:36.469Z,3.20
2018-04-19T21:31:03.226Z,3.20
2018-04-19T21:33:29.786Z,2.97
2018-04-19T21:35:56.555Z,3.30
2018-04-19T21:38:23.076Z,3.43
2018-04-19T21:40:50.550Z,2.60
2018-04-19T21:43:17.839Z,2.93
2018-04-19T21:45:44.379Z,3.40
2018-04-19T21:48:10.821Z,2.40
2018-04-19T21:50:37.318Z,1.90
2018-04-19T21:53:04.486Z,2.90
2018-04-19T21:55:31.947Z,3.53
2018-04-19T21:57:58.379Z,2.93
2018-04-19T22:00:24.997Z,3.17
2018-04-19T22:02:52.191Z,2.60
2018-04-19T22:05:18.625Z,3.80
2018-04-19T22:07:45.192Z,2.80
2018-04-19T22:10:11.627Z,2.67
2018-04-19T22:12:38.160Z,3.13
2018-04-19T22:15:06.110Z,1.80
2018-04-19T22:17:32.667Z,2.07
2018-04-19T22:19:59.142Z,2.60
2018-04-19T22:22:25.694Z,2.03
2018-04-19T22:24:52.486Z,2.97
2018-04-19T22:27:18.958Z,2.43
2018-04-19T22:29:46.235Z,1.90
2018-04-19T22:32:13.680Z,2.53
2018-04-19T22:34:40.378Z,3.00
2018-04-19T22:37:06.879Z,2.63
2018-04-19T22:39:33.595Z,3.03
2018-04-19T22:42:00.602Z,2.73
2018-04-19T22:44:27.143Z,2.43
2018-04-19T22:46:53.767Z,3.00
2018-04-19T22:49:20.251Z,3.00
2018-04-19T22:51:46.806Z,2.07
2018-04-19T22:54:13.387Z,2.83
2018-04-19T22:56:39.933Z,2.00
2018-04-19T22:59:06.530Z,2.30
2018-04-19T23:01:33.088Z,3.70
2018-04-19T23:03:59.661Z,2.10
2018-04-19T23:06:26.184Z,2.50
2018-04-19T23:08:52.793Z,2.40
2018-04-19T23:11:19.290Z,3.00
2018-04-19T23:13:45.831Z,3.67
2018-04-19T23:16:12.357Z,4.13
2018-04-19T23:18:39.669Z,4.27
2018-04-19T23:21:06.312Z,3.93
2018-04-19T23:23:32.946Z,3.63
2018-04-19T23:25:59.519Z,3.73
2018-04-19T23:28:26.139Z,3.63
2018-04-19T23:30:52.677Z,4.00
2018-04-19T23:33:19.999Z,2.73
2018-04-19T23:35:46.656Z,3.60
2018-04-19T23:38:13.199Z,2.70
2018-04-19T23:40:40.587Z,4.27
2018-04-19T23:43:07.134Z,3.23
2018-04-19T23:45:33.744Z,3.07
2018-04-19T23:48:01.011Z,4.00
2018-04-19T23:50:27.583Z,1.80
2018-04-19T23:52:54.103Z,2.20
2018-04-19T23:55:20.713Z,2.00
2018-04-19T23:57:47.307Z,1.73
